KFPK

Fitch H Beach Airport

Charlotte, Michigan, USA
METAR KFPK 182335Z AUTO 00000KT 10SM CLR 25/19 A2996 RMK AO2 T02460190
Observed Flight Rules
Aug-18 @ 23:35 UTC (10 minutes ago) Visual Flight Rules
Visibility Clouds
10 miles
  • Clear skies
Temperatures Readings
Current 25°C / 77°F
Dewpoint 19°C / 66°F
Humidity 69%
Altimeter 29.96" Hg
Pressure 1015 hPa
Elevation 272
METAR KFPK 182335Z AUTO 00000KT 10SM CLR 25/19 A2996 RMK AO2 T02460190
Observed Flight Rules
Aug-18 @ 23:35 UTC
(10 minutes ago)
VFR
Clouds
  • Clear skies
Temperature Dewpoint
25°C / 77°F 19°C / 66°F
Humidity Altimeter Pressure
69% 29.96" Hg 1015 hPa